Time;durP1;ratioP1;P1;durP2;ratioP2;P2;SDS_P1;SDS_P2;PMS_P1;PMS_P2;Temp;Humidity;BMP_temperature;BMP_pressure;BME280_temperature;BME280_humidity;BME280_pressure;Samples;Min_cycle;Max_cycle;Signal;HPM_P1;HPM_P2
2023/09/08 00:02:11;;;;;;;7.20;6.70;;;;;;;19.52;100.00;96832.03;5114740;28;20205;-55
2023/09/08 00:04:37;;;;;;;7.95;7.35;;;;;;;19.57;100.00;96821.56;5114345;28;20496;-54
2023/09/08 00:07:04;;;;;;;8.40;7.70;;;;;;;19.56;100.00;96819.91;5114187;28;20721;-55
2023/09/08 00:09:31;;;;;;;8.48;7.88;;;;;;;19.52;100.00;96832.03;5113807;28;20588;-53
2023/09/08 00:11:59;;;;;;;8.55;7.70;;;;;;;19.50;100.00;96825.22;5113506;28;20208;-55
2023/09/08 00:14:25;;;;;;;8.02;7.40;;;;;;;19.46;100.00;96821.25;5113628;28;20231;-55
2023/09/08 00:16:54;;;;;;;8.80;8.00;;;;;;;19.43;100.00;96825.16;5114095;28;20529;-53
2023/09/08 00:19:21;;;;;;;8.35;7.72;;;;;;;19.40;100.00;96825.53;5114115;28;20266;-53
2023/09/08 00:21:47;;;;;;;8.60;7.90;;;;;;;19.40;100.00;96822.84;5114005;28;20204;-54
2023/09/08 00:24:13;;;;;;;8.13;7.50;;;;;;;19.40;100.00;96822.84;5130711;28;20202;-56
2023/09/08 00:26:40;;;;;;;8.93;8.02;;;;;;;19.37;100.00;96823.22;5129794;28;20297;-54
2023/09/08 00:29:06;;;;;;;8.90;8.00;;;;;;;19.35;100.00;96822.59;5124363;28;20229;-55
2023/09/08 00:31:33;;;;;;;8.50;7.80;;;;;;;19.35;100.00;96822.59;5127784;28;20212;-54
2023/09/08 00:34:02;;;;;;;9.00;8.20;;;;;;;19.34;100.00;96816.38;5115755;28;20278;-53
2023/09/08 00:36:28;;;;;;;8.70;7.90;;;;;;;19.34;100.00;96826.31;5115735;28;20839;-54
2023/09/08 00:38:55;;;;;;;8.02;7.43;;;;;;;19.33;100.00;96824.63;5112825;28;20201;-54
2023/09/08 00:41:23;;;;;;;8.98;8.18;;;;;;;19.34;100.00;96826.31;5114041;28;20197;-54
2023/09/08 00:43:49;;;;;;;8.13;7.43;;;;;;;19.31;100.00;96827.50;5113379;28;20626;-54
2023/09/08 00:46:17;;;;;;;8.60;7.80;;;;;;;19.31;100.00;96829.34;5113488;28;20232;-53
2023/09/08 00:48:43;;;;;;;9.52;8.02;;;;;;;19.29;100.00;96829.56;5112682;28;20644;-55
2023/09/08 00:51:11;;;;;;;9.00;8.27;;;;;;;19.26;100.00;96821.06;5113760;28;20209;-52
2023/09/08 00:53:38;;;;;;;8.88;8.02;;;;;;;19.24;100.00;96820.41;5113650;28;20304;-55
2023/09/08 00:56:05;;;;;;;8.70;7.78;;;;;;;19.19;100.00;96828.22;5113301;28;20223;-53
2023/09/08 00:58:32;;;;;;;8.18;7.45;;;;;;;19.22;100.00;96822.47;5112709;28;20216;-53
2023/09/08 01:00:58;;;;;;;8.52;7.82;;;;;;;19.15;100.00;96819.72;5113569;28;20205;-53
2023/09/08 01:03:24;;;;;;;9.00;8.20;;;;;;;19.13;100.00;96823.63;5113513;28;20201;-54
2023/09/08 01:05:52;;;;;;;8.93;8.02;;;;;;;19.13;100.00;96823.63;5111490;28;20197;-61
2023/09/08 01:08:20;;;;;;;8.43;7.72;;;;;;;19.11;100.00;96825.66;5113171;28;20660;-55
2023/09/08 01:10:46;;;;;;;8.70;7.97;;;;;;;19.08;100.00;96820.69;5112002;28;20217;-53
2023/09/08 01:13:14;;;;;;;8.55;7.95;;;;;;;19.08;100.00;96821.53;5113398;28;20518;-54
2023/09/08 01:15:41;;;;;;;8.57;7.90;;;;;;;19.07;100.00;96825.22;5111857;28;20238;-55
2023/09/08 01:18:07;;;;;;;8.45;7.80;;;;;;;19.02;100.00;96824.16;5112830;28;20754;-54
2023/09/08 01:20:50;;;;;;;9.07;8.18;;;;;;;19.01;100.00;96831.34;5113213;28;20216;-53
2023/09/08 01:23:23;;;;;;;10.07;8.48;;;;;;;18.98;100.00;96825.53;5112114;28;20219;-54
2023/09/08 01:25:53;;;;;;;9.55;8.65;;;;;;;18.99;100.00;96827.22;5111563;28;20189;-54
2023/09/08 01:28:21;;;;;;;8.85;8.10;;;;;;;18.96;100.00;96827.56;5112203;28;20248;-54
2023/09/08 01:30:48;;;;;;;8.48;7.82;;;;;;;18.93;100.00;96823.44;5112318;28;20193;-54
2023/09/08 01:33:15;;;;;;;9.07;8.38;;;;;;;18.91;100.00;96819.28;5112307;28;20213;-54
2023/09/08 01:35:42;;;;;;;9.35;8.55;;;;;;;18.92;100.00;96820.94;5111641;28;20228;-53
2023/09/08 01:38:08;;;;;;;8.95;8.13;;;;;;;18.90;100.00;96818.44;5113261;28;20204;-54
2023/09/08 01:40:35;;;;;;;9.25;8.40;;;;;;;18.89;100.00;96816.78;5094026;28;20201;-54
2023/09/08 01:43:03;;;;;;;9.32;8.30;;;;;;;18.92;100.00;96815.59;5113675;28;20214;-53
2023/09/08 01:45:30;;;;;;;8.52;7.72;;;;;;;18.86;100.00;96812.66;5112712;28;20605;-53
2023/09/08 01:47:56;;;;;;;9.23;8.23;;;;;;;18.84;100.00;96820.06;5112955;28;20205;-54
2023/09/08 01:50:24;;;;;;;8.73;8.00;;;;;;;18.83;100.00;96815.72;5112627;28;20201;-56
2023/09/08 01:52:52;;;;;;;9.50;8.60;;;;;;;18.81;100.00;96811.56;5111714;28;20197;-53
2023/09/08 01:55:22;;;;;;;9.57;8.48;;;;;;;18.78;100.00;96809.25;5111218;28;20320;-54
2023/09/08 01:57:48;;;;;;;9.18;8.30;;;;;;;18.75;100.00;96802.41;5111244;28;20209;-54
2023/09/08 02:00:18;;;;;;;8.98;8.23;;;;;;;18.73;100.00;96807.16;5111541;28;20546;-55
2023/09/08 02:02:44;;;;;;;8.30;7.60;;;;;;;18.70;100.00;96804.84;5111427;28;20210;-56
2023/09/08 02:05:11;;;;;;;9.00;8.20;;;;;;;18.68;100.00;96804.19;5112078;28;20204;-54
2023/09/08 02:07:37;;;;;;;8.85;8.13;;;;;;;18.66;100.00;96806.25;5111119;28;20193;-55
2023/09/08 02:10:04;;;;;;;9.45;8.43;;;;;;;18.65;100.00;96796.53;5111528;28;20201;-54
2023/09/08 02:12:31;;;;;;;8.88;7.97;;;;;;;18.67;100.00;96807.88;5111524;28;20201;-54
2023/09/08 02:14:58;;;;;;;9.50;8.48;;;;;;;18.65;100.00;96807.25;5111267;28;20228;-54
2023/09/08 02:17:25;;;;;;;12.45;9.18;;;;;;;18.64;100.00;96802.09;5111564;28;20568;-55
2023/09/08 02:19:52;;;;;;;8.88;8.20;;;;;;;18.65;100.00;96803.75;5110532;28;20660;-54
2023/09/08 02:22:18;;;;;;;9.43;8.50;;;;;;;18.61;100.00;96808.66;5111614;28;20300;-55
2023/09/08 02:24:46;;;;;;;9.00;8.25;;;;;;;18.59;100.00;96805.34;5112035;28;20526;-54
2023/09/08 02:27:13;;;;;;;9.15;8.30;;;;;;;18.59;100.00;96804.50;5111638;28;20201;-53
2023/09/08 02:29:41;;;;;;;8.35;7.65;;;;;;;18.56;100.00;96811.09;5112225;28;20197;-55
2023/09/08 02:32:07;;;;;;;8.30;7.60;;;;;;;18.54;100.00;96801.56;5112009;28;20555;-53
2023/09/08 02:34:37;;;;;;;9.48;8.60;;;;;;;18.53;100.00;96805.28;5112287;28;20213;-54
2023/09/08 02:37:04;;;;;;;9.68;8.18;;;;;;;18.51;100.00;96804.63;5126568;28;20246;-55
2023/09/08 02:39:30;;;;;;;8.93;8.07;;;;;;;18.48;100.00;96808.47;5110453;28;20549;-54
2023/09/08 02:41:57;;;;;;;9.43;8.13;;;;;;;18.49;100.00;96810.16;5110792;28;20582;-54
2023/09/08 02:44:23;;;;;;;9.88;8.80;;;;;;;18.47;100.00;96808.66;5111397;28;20201;-54
2023/09/08 02:46:50;;;;;;;9.27;8.48;;;;;;;18.48;100.00;96802.28;5110880;28;20207;-51
2023/09/08 02:49:16;;;;;;;8.88;8.05;;;;;;;18.46;100.00;96815.84;5110995;28;20209;-54
2023/09/08 02:51:44;;;;;;;9.75;8.52;;;;;;;18.45;100.00;96813.38;5110941;28;20212;-53
2023/09/08 02:54:10;;;;;;;9.40;8.32;;;;;;;18.42;100.00;96819.94;5111238;28;20201;-54
2023/09/08 02:56:38;;;;;;;9.95;8.98;;;;;;;18.40;100.00;96819.28;5112560;28;20217;-55
2023/09/08 02:59:05;;;;;;;9.48;8.68;;;;;;;18.41;100.00;96815.59;5116492;28;20201;-54
2023/09/08 03:01:32;;;;;;;8.88;8.18;;;;;;;18.39;100.00;96818.44;5118855;28;20549;-56
2023/09/08 03:03:58;;;;;;;11.60;9.32;;;;;;;18.38;100.00;96822.16;5118298;28;20219;-56
2023/09/08 03:06:25;;;;;;;9.13;8.38;;;;;;;18.38;100.00;96815.97;5118170;28;20198;-54
2023/09/08 03:08:52;;;;;;;9.93;9.13;;;;;;;18.40;100.00;96816.63;5118218;28;20235;-54
2023/09/08 03:11:20;;;;;;;9.18;8.48;;;;;;;18.41;100.00;96815.59;5116514;28;20643;-55
2023/09/08 03:13:47;;;;;;;8.82;8.05;;;;;;;18.39;100.00;96812.25;5115899;28;20247;-55
2023/09/08 03:16:13;;;;;;;9.95;8.73;;;;;;;18.36;100.00;96812.66;5092876;28;20229;-53
2023/09/08 03:18:41;;;;;;;9.40;8.60;;;;;;;18.34;100.00;96814.69;5113558;28;20200;-54
2023/09/08 03:21:10;;;;;;;10.05;9.05;;;;;;;18.30;100.00;96816.06;5112817;28;20208;-56
2023/09/08 03:23:37;;;;;;;10.48;9.38;;;;;;;18.29;100.00;96817.09;5113430;28;20208;-54
2023/09/08 03:26:05;;;;;;;9.65;8.75;;;;;;;18.26;100.00;96825.50;5113428;28;20254;-55
2023/09/08 03:28:33;;;;;;;9.35;8.52;;;;;;;18.23;100.00;96820.53;5111972;28;20236;-52
2023/09/08 03:31:01;;;;;;;10.25;9.23;;;;;;;18.21;100.00;96818.00;5111784;28;20201;-52
2023/09/08 03:33:28;;;;;;;10.77;9.68;;;;;;;18.18;100.00;96817.56;5110741;28;20259;-54
2023/09/08 03:35:55;;;;;;;9.95;9.13;;;;;;;18.16;100.00;96811.56;5111534;28;20228;-54
2023/09/08 03:38:21;;;;;;;9.35;8.65;;;;;;;18.15;100.00;96816.09;5111210;28;20641;-53
2023/09/08 03:40:48;;;;;;;10.38;9.38;;;;;;;18.17;100.00;96810.56;5109869;28;20208;-54
2023/09/08 03:43:16;;;;;;;9.95;9.05;;;;;;;18.15;100.00;96810.75;5110890;28;20216;-55
2023/09/08 03:45:43;;;;;;;10.27;9.38;;;;;;;18.17;100.00;96810.56;5110547;28;20494;-53
2023/09/08 03:48:10;;;;;;;9.93;8.90;;;;;;;18.18;100.00;96812.19;5111216;28;20228;-53
2023/09/08 03:50:36;;;;;;;10.43;9.30;;;;;;;18.17;100.00;96807.88;5110118;28;20225;-54
2023/09/08 03:53:03;;;;;;;10.25;9.27;;;;;;;18.18;100.00;96812.19;5110809;28;20226;-54
2023/09/08 03:55:29;;;;;;;9.63;8.82;;;;;;;18.19;100.00;96819.22;5110567;28;20217;-54
2023/09/08 03:57:57;;;;;;;9.70;8.88;;;;;;;18.17;100.00;96816.75;5111198;28;20614;-54
2023/09/08 04:00:25;;;;;;;9.27;8.45;;;;;;;18.18;100.00;96822.91;5110817;28;20602;-54
2023/09/08 04:02:52;;;;;;;9.85;8.95;;;;;;;18.17;100.00;96823.94;5111024;28;20225;-54
2023/09/08 04:05:19;;;;;;;9.60;8.80;;;;;;;18.16;100.00;96824.94;5110502;28;20217;-53
2023/09/08 04:07:46;;;;;;;9.95;9.15;;;;;;;18.14;100.00;96830.47;5110666;28;20201;-55
2023/09/08 04:10:13;;;;;;;9.75;9.02;;;;;;;18.24;100.00;96824.88;5110011;28;20205;-54
2023/09/08 04:12:40;;;;;;;9.65;8.85;;;;;;;18.19;100.00;96827.25;5110271;28;20361;-55
2023/09/08 04:15:09;;;;;;;10.15;9.18;;;;;;;18.16;100.00;96825.78;5112199;28;20235;-54
2023/09/08 04:17:38;;;;;;;10.25;9.45;;;;;;;18.15;100.00;96826.78;5113758;28;20232;-55
2023/09/08 04:20:06;;;;;;;10.27;9.27;;;;;;;18.11;100.00;96830.03;5113806;28;20584;-55
2023/09/08 04:22:32;;;;;;;10.60;9.15;;;;;;;18.08;100.00;96827.72;5113960;28;20193;-55
2023/09/08 04:25:01;;;;;;;10.25;9.45;;;;;;;18.02;100.00;96831.13;5113077;28;20644;-54
2023/09/08 04:27:27;;;;;;;9.90;8.90;;;;;;;17.95;100.00;96827.53;5113146;28;20231;-55
2023/09/08 04:29:54;;;;;;;10.23;9.25;;;;;;;17.95;100.00;96827.53;5113113;28;20217;-53
2023/09/08 04:32:20;;;;;;;10.45;9.45;;;;;;;17.94;100.00;96833.91;5113792;28;20231;-53
2023/09/08 04:34:50;;;;;;;9.98;9.10;;;;;;;17.90;100.00;96836.94;5113546;28;20201;-54
2023/09/08 04:37:17;;;;;;;10.30;9.50;;;;;;;17.91;100.00;96829.75;5112877;28;20228;-54
2023/09/08 04:39:44;;;;;;;10.10;9.38;;;;;;;17.92;100.00;96837.56;5113136;28;20197;-54
2023/09/08 04:42:12;;;;;;;10.00;9.10;;;;;;;17.92;100.00;96833.25;5113320;28;20313;-53
2023/09/08 04:44:38;;;;;;;9.93;9.05;;;;;;;17.95;100.00;96840.91;5113508;28;20519;-54
2023/09/08 04:47:05;;;;;;;9.60;8.90;;;;;;;17.95;100.00;96843.59;5113362;28;20205;-54
2023/09/08 04:49:31;;;;;;;11.15;8.98;;;;;;;17.92;100.00;96842.13;5113239;28;20212;-54
2023/09/08 04:51:59;;;;;;;10.13;9.38;;;;;;;17.88;100.00;96844.34;5114285;28;20386;-55
2023/09/08 04:54:27;;;;;;;10.18;9.38;;;;;;;17.86;100.00;96849.03;5114199;28;20205;-59
2023/09/08 04:56:53;;;;;;;10.45;9.57;;;;;;;17.86;100.00;96846.34;5114178;28;20319;-53
2023/09/08 04:59:20;;;;;;;9.82;8.95;;;;;;;17.87;100.00;96853.38;5117463;28;20254;-54
2023/09/08 05:01:48;;;;;;;10.75;9.75;;;;;;;17.90;100.00;96857.53;5117097;28;20656;-53
2023/09/08 05:04:15;;;;;;;10.35;9.45;;;;;;;17.91;100.00;96859.19;5121940;28;20208;-59
2023/09/08 05:06:42;;;;;;;10.98;9.77;;;;;;;17.92;100.00;96850.16;5123336;28;20204;-53
2023/09/08 05:09:10;;;;;;;11.57;10.57;;;;;;;17.94;100.00;96857.97;5122192;28;20713;-53
2023/09/08 05:11:37;;;;;;;10.27;9.25;;;;;;;17.94;100.00;96852.63;5115673;28;20216;-59
2023/09/08 05:14:03;;;;;;;10.88;9.82;;;;;;;17.94;100.00;96861.50;5112632;28;20254;-53
2023/09/08 05:16:39;;;;;;;10.90;10.00;;;;;;;17.95;100.00;96862.31;5113994;28;20307;-53
2023/09/08 05:19:06;;;;;;;10.82;9.95;;;;;;;17.97;100.00;96858.44;5112266;28;20619;-53
2023/09/08 05:21:33;;;;;;;10.43;9.52;;;;;;;17.97;100.00;96857.59;5112902;28;20220;-53
2023/09/08 05:23:59;;;;;;;10.32;9.52;;;;;;;18.01;100.00;96856.22;5112382;28;20238;-53
2023/09/08 05:26:27;;;;;;;10.85;9.88;;;;;;;18.05;100.00;96857.53;5112207;28;20213;-54
2023/09/08 05:28:53;;;;;;;10.60;9.75;;;;;;;18.09;100.00;96864.19;5112559;28;20569;-53
2023/09/08 05:31:20;;;;;;;10.68;9.68;;;;;;;18.12;100.00;96861.13;5113007;28;20295;-53
2023/09/08 05:33:47;;;;;;;10.15;9.25;;;;;;;18.14;100.00;96861.78;5112922;28;20210;-53
2023/09/08 05:36:13;;;;;;;10.02;9.23;;;;;;;18.14;100.00;96864.47;5115137;28;20232;-53
2023/09/08 05:38:40;;;;;;;10.88;9.98;;;;;;;18.18;100.00;96866.56;5119786;28;20211;-53
2023/09/08 05:41:06;;;;;;;11.30;10.20;;;;;;;18.24;100.00;96871.22;5123614;28;20193;-52
2023/09/08 05:43:36;;;;;;;11.70;10.55;;;;;;;18.28;100.00;96867.13;5114833;28;20205;-54
2023/09/08 05:46:05;;;;;;;11.50;10.40;;;;;;;18.32;100.00;96880.97;5113115;28;20190;-53
2023/09/08 05:48:32;;;;;;;10.88;9.98;;;;;;;18.34;100.00;96877.09;5116538;28;20220;-53
2023/09/08 05:50:59;;;;;;;11.80;10.70;;;;;;;18.36;100.00;96874.22;5121383;28;20537;-55
2023/09/08 05:53:26;;;;;;;11.77;10.77;;;;;;;18.39;100.00;96882.72;5118661;28;20201;-53
2023/09/08 05:55:52;;;;;;;11.75;10.52;;;;;;;18.46;100.00;96877.44;5117773;28;20236;-57
2023/09/08 05:58:20;;;;;;;11.60;10.70;;;;;;;18.52;100.00;96874.06;5122316;28;20205;-54
2023/09/08 06:00:48;;;;;;;12.85;11.65;;;;;;;18.60;100.00;96873.94;5119906;28;20206;-55
2023/09/08 06:03:14;;;;;;;13.27;12.23;;;;;;;18.69;100.00;96875.53;5117585;28;20216;-58
2023/09/08 06:05:41;;;;;;;12.55;11.35;;;;;;;18.85;100.00;96875.28;5115831;28;20205;-57
2023/09/08 06:08:08;;;;;;;14.20;11.88;;;;;;;19.17;100.00;96884.69;5116396;28;20193;-57
2023/09/08 06:10:35;;;;;;;13.20;12.02;;;;;;;19.44;100.00;96887.69;5113871;28;20258;-54
2023/09/08 06:13:02;;;;;;;12.85;11.57;;;;;;;19.81;100.00;96882.00;5095182;28;20709;-55
2023/09/08 06:15:28;;;;;;;14.48;11.48;;;;;;;20.21;100.00;96888.50;5113013;28;20840;-55
2023/09/08 06:17:55;;;;;;;12.57;11.38;;;;;;;20.70;100.00;96883.84;5112973;28;20311;-54
2023/09/08 06:20:24;;;;;;;11.25;10.07;;;;;;;21.05;100.00;96881.88;5093428;28;20201;-54
2023/09/08 06:22:51;;;;;;;11.82;10.63;;;;;;;21.60;100.00;96880.78;5111701;28;20294;-53
2023/09/08 06:25:20;;;;;;;11.05;9.98;;;;;;;22.10;100.00;96882.06;5111396;28;20209;-54
2023/09/08 06:27:49;;;;;;;10.57;9.57;;;;;;;22.57;100.00;96882.75;5111891;28;20780;-54
2023/09/08 06:30:18;;;;;;;10.73;9.73;;;;;;;23.02;100.00;96881.78;5112322;28;20884;-55
2023/09/08 06:32:44;;;;;;;11.60;10.48;;;;;;;23.53;100.00;96879.00;5114675;28;20232;-55
2023/09/08 06:35:12;;;;;;;11.43;9.90;;;;;;;24.04;100.00;96881.53;5113911;28;20220;-55
2023/09/08 06:37:39;;;;;;;10.05;9.18;;;;;;;24.53;100.00;96885.22;5113784;28;20232;-60
2023/09/08 06:40:10;;;;;;;10.38;9.57;;;;;;;24.51;100.00;96877.34;5113984;28;20193;-54
2023/09/08 06:42:37;;;;;;;10.43;9.45;;;;;;;24.83;97.51;96879.91;5115674;28;20576;-55
2023/09/08 06:45:04;;;;;;;10.15;9.30;;;;;;;25.02;96.03;96884.25;5114618;28;20209;-58
2023/09/08 06:47:30;;;;;;;10.65;8.68;;;;;;;25.21;93.48;96889.41;5118478;28;20204;-56
2023/09/08 06:49:56;;;;;;;10.10;9.10;;;;;;;25.31;94.29;96886.16;5123538;28;20201;-56
2023/09/08 06:52:24;;;;;;;11.25;9.60;;;;;;;25.13;95.94;96889.72;5122330;28;20323;-53
2023/09/08 06:54:51;;;;;;;10.40;9.45;;;;;;;25.19;93.26;96890.69;5112071;28;20288;-54
2023/09/08 06:57:18;;;;;;;9.70;8.80;;;;;;;25.38;94.06;96880.63;5111717;28;20229;-54
2023/09/08 06:59:45;;;;;;;10.55;9.55;;;;;;;25.44;91.95;96885.13;5110650;28;20197;-52
2023/09/08 07:02:12;;;;;;;11.48;9.63;;;;;;;25.44;93.14;96883.25;5111520;28;20227;-53
2023/09/08 07:04:38;;;;;;;10.88;8.80;;;;;;;25.25;94.03;96881.66;5110470;28;20211;-52
2023/09/08 07:07:07;;;;;;;10.10;9.20;;;;;;;25.33;91.88;96884.03;5110459;28;20205;-51
2023/09/08 07:09:35;;;;;;;9.90;8.82;;;;;;;25.58;91.50;96883.91;5110465;28;20220;-52
2023/09/08 07:12:02;;;;;;;10.20;9.13;;;;;;;25.21;95.78;96883.16;5110149;28;20258;-52
2023/09/08 07:14:28;;;;;;;9.60;8.80;;;;;;;25.12;94.22;96884.53;5110269;28;20201;-53
2023/09/08 07:16:55;;;;;;;10.30;8.85;;;;;;;24.97;96.27;96884.13;5110341;28;20216;-53
2023/09/08 07:19:21;;;;;;;12.50;9.43;;;;;;;24.75;97.00;96881.84;5110179;28;20228;-52
2023/09/08 07:21:48;;;;;;;10.55;9.60;;;;;;;24.41;97.34;96881.63;5109964;28;20238;-53
2023/09/08 07:24:14;;;;;;;10.32;9.35;;;;;;;24.40;96.33;96878.09;5110314;28;20204;-52
2023/09/08 07:26:42;;;;;;;10.18;9.20;;;;;;;24.18;100.00;96887.66;5110107;28;20220;-55
2023/09/08 07:29:09;;;;;;;11.15;9.98;;;;;;;23.98;100.00;96887.81;5109329;28;20239;-52
2023/09/08 07:31:35;;;;;;;9.68;8.88;;;;;;;24.02;100.00;96888.22;5110179;28;20205;-53
2023/09/08 07:34:02;;;;;;;10.35;8.63;;;;;;;23.98;100.00;96881.59;5110338;28;20221;-52
2023/09/08 07:36:28;;;;;;;10.45;9.25;;;;;;;24.11;100.00;96876.06;5109243;28;21715;-51
2023/09/08 07:38:55;;;;;;;10.20;9.25;;;;;;;24.26;100.00;96876.56;5110190;28;20547;-53
2023/09/08 07:41:22;;;;;;;10.25;9.35;;;;;;;24.35;100.00;96877.91;5110394;28;20205;-53
2023/09/08 07:43:50;;;;;;;11.07;10.02;;;;;;;24.42;99.45;96877.84;5110572;28;20216;-53
2023/09/08 07:46:17;;;;;;;11.27;10.20;;;;;;;24.35;99.92;96872.50;5110426;28;20193;-55
2023/09/08 07:48:43;;;;;;;11.02;9.93;;;;;;;24.19;100.00;96867.69;5110594;28;20216;-54
2023/09/08 07:51:10;;;;;;;12.15;10.10;;;;;;;24.20;100.00;96874.75;5114412;28;20205;-52
2023/09/08 07:53:36;;;;;;;11.00;9.90;;;;;;;24.20;100.00;96874.75;5114564;28;20656;-54
2023/09/08 07:56:04;;;;;;;10.95;9.95;;;;;;;24.13;100.00;96873.97;5113744;28;20205;-53
2023/09/08 07:58:30;;;;;;;10.30;9.40;;;;;;;24.14;100.00;96872.94;5114739;28;20216;-53
2023/09/08 08:00:58;;;;;;;13.10;11.85;;;;;;;23.99;100.00;96885.91;5113612;28;20293;-54
2023/09/08 08:03:24;;;;;;;10.20;9.32;;;;;;;23.97;100.00;96874.53;5114154;28;20193;-53
2023/09/08 08:05:52;;;;;;;11.60;10.52;;;;;;;23.93;100.00;96878.72;5114018;28;20304;-53
2023/09/08 08:08:19;;;;;;;12.35;11.18;;;;;;;23.93;100.00;96882.25;5113500;28;20200;-54
2023/09/08 08:10:45;;;;;;;11.90;10.95;;;;;;;23.88;100.00;96881.25;5113337;28;20570;-51
2023/09/08 08:13:12;;;;;;;11.05;9.98;;;;;;;23.98;100.00;96878.88;5113498;28;20202;-52
2023/09/08 08:15:40;;;;;;;11.13;10.00;;;;;;;23.97;100.00;96886.16;5113629;28;20210;-54
2023/09/08 08:18:09;;;;;;;10.50;9.50;;;;;;;24.05;100.00;96877.78;5095645;28;20236;-54
2023/09/08 08:20:36;;;;;;;11.68;9.60;;;;;;;24.15;100.00;96877.28;5113603;28;20201;-54
2023/09/08 08:23:02;;;;;;;11.00;10.00;;;;;;;24.30;100.00;96882.34;5095871;28;20537;-53
2023/09/08 08:25:30;;;;;;;10.57;9.18;;;;;;;24.48;100.00;96880.47;5112956;28;20197;-54
2023/09/08 08:27:58;;;;;;;11.18;10.18;;;;;;;24.76;100.00;96879.97;5112760;28;20229;-55
2023/09/08 08:30:24;;;;;;;11.05;9.60;;;;;;;24.94;100.00;96876.47;5112837;28;20299;-54
2023/09/08 08:32:53;;;;;;;11.65;9.82;;;;;;;25.06;99.47;96880.03;5113239;28;20283;-53
2023/09/08 08:35:20;;;;;;;10.50;9.60;;;;;;;25.36;100.00;96880.88;5112856;28;20274;-52
2023/09/08 08:37:47;;;;;;;10.73;9.63;;;;;;;25.55;97.30;96879.78;5113507;28;20217;-53
2023/09/08 08:40:14;;;;;;;9.90;9.10;;;;;;;25.74;96.48;96878.66;5112885;28;20534;-54
2023/09/08 08:42:41;;;;;;;10.00;9.20;;;;;;;25.95;97.95;96879.16;5113979;28;20227;-54
2023/09/08 08:45:08;;;;;;;10.63;9.73;;;;;;;26.21;96.38;96871.44;5112847;28;20541;-54
2023/09/08 08:47:35;;;;;;;10.70;9.80;;;;;;;26.36;93.28;96876.38;5113268;28;20216;-53
2023/09/08 08:50:02;;;;;;;10.38;9.40;;;;;;;26.66;95.21;96876.22;5113288;28;20204;-52
2023/09/08 08:52:30;;;;;;;10.85;9.95;;;;;;;26.44;88.13;96873.31;5115026;28;20211;-53
2023/09/08 08:54:57;;;;;;;11.15;9.88;;;;;;;26.70;89.87;96878.22;5116630;28;20886;-54
2023/09/08 08:57:26;;;;;;;10.38;9.23;;;;;;;26.75;91.63;96869.34;5115345;28;20228;-54
2023/09/08 08:59:53;;;;;;;9.88;8.95;;;;;;;27.01;89.33;96868.84;5112491;28;20235;-53
2023/09/08 09:02:20;;;;;;;11.50;9.60;;;;;;;27.08;88.23;96864.09;5112709;28;20202;-53
2023/09/08 09:04:46;;;;;;;9.68;8.68;;;;;;;27.11;87.71;96869.06;5112455;28;20201;-53
2023/09/08 09:07:13;;;;;;;12.43;8.57;;;;;;;27.52;87.65;96867.16;5113365;28;20209;-52
2023/09/08 09:09:41;;;;;;;10.65;8.77;;;;;;;27.76;87.54;96871.38;5112827;28;20526;-55
2023/09/08 09:12:08;;;;;;;9.77;8.77;;;;;;;27.89;85.79;96865.59;5112158;28;20212;-54
2023/09/08 09:14:35;;;;;;;8.50;7.68;;;;;;;28.24;87.17;96865.38;5112640;28;20193;-54
2023/09/08 09:17:05;;;;;;;8.88;8.18;;;;;;;28.46;83.34;96858.09;5112439;28;20237;-54
2023/09/08 09:19:33;;;;;;;9.85;8.95;;;;;;;28.49;83.03;96860.31;5112973;28;20201;-53
2023/09/08 09:22:00;;;;;;;10.75;9.23;;;;;;;28.71;78.34;96862.25;5112663;28;20201;-55
2023/09/08 09:24:31;;;;;;;9.35;8.50;;;;;;;28.72;80.24;96867.47;5111627;28;20566;-56
2023/09/08 09:26:59;;;;;;;9.02;8.23;;;;;;;28.79;80.79;96870.00;5112387;28;20590;-53
2023/09/08 09:29:25;;;;;;;11.98;9.68;;;;;;;28.55;80.19;96859.31;5111379;28;20237;-54
2023/09/08 09:31:54;;;;;;;10.68;9.57;;;;;;;28.43;79.54;96850.44;5111824;28;20223;-54
2023/09/08 09:34:21;;;;;;;12.45;9.30;;;;;;;28.55;80.38;96848.44;5113163;28;20285;-51
2023/09/08 09:36:49;;;;;;;9.68;8.77;;;;;;;28.71;80.89;96851.38;5112371;28;20193;-54
2023/09/08 09:39:17;;;;;;;11.48;8.90;;;;;;;28.71;79.79;96849.47;5112220;28;20220;-53
2023/09/08 09:41:44;;;;;;;9.70;8.23;;;;;;;29.05;81.16;96850.97;5112377;28;20224;-54
2023/09/08 09:44:12;;;;;;;9.07;8.18;;;;;;;29.26;77.85;96849.38;5112025;28;20197;-53
2023/09/08 09:46:39;;;;;;;10.15;8.13;;;;;;;29.45;79.16;96847.91;5111988;28;20204;-53
2023/09/08 09:49:05;;;;;;;11.30;8.65;;;;;;;29.55;78.71;96847.19;5112203;28;20201;-55
2023/09/08 09:51:32;;;;;;;9.82;8.82;;;;;;;29.42;76.56;96842.16;5112002;28;20287;-54
2023/09/08 09:53:58;;;;;;;10.40;8.77;;;;;;;29.42;78.29;96836.69;5112236;28;20273;-53
2023/09/08 09:56:25;;;;;;;10.27;8.57;;;;;;;29.73;79.31;96845.97;5111690;28;20352;-53
2023/09/08 09:58:53;;;;;;;9.75;8.95;;;;;;;29.69;80.43;96842.16;5111033;28;20229;-53
2023/09/08 10:01:26;;;;;;;10.25;9.27;;;;;;;29.67;77.17;96833.41;5111614;28;20194;-55
2023/09/08 10:03:54;;;;;;;9.45;8.38;;;;;;;29.74;81.39;96839.44;5112768;28;20667;-53
2023/09/08 10:06:21;;;;;;;11.75;8.60;;;;;;;29.54;76.54;96835.47;5112098;28;20205;-54
2023/09/08 10:08:49;;;;;;;8.35;7.75;;;;;;;29.81;77.29;96834.59;5111344;28;20370;-54
2023/09/08 10:11:17;;;;;;;8.98;8.18;;;;;;;29.95;77.38;96841.28;5112045;28;20205;-53
2023/09/08 10:13:47;;;;;;;9.85;8.85;;;;;;;29.92;75.75;96831.75;5110967;28;20208;-53
2023/09/08 10:16:14;;;;;;;9.00;8.25;;;;;;;30.19;76.02;96831.66;5111877;28;20296;-53
2023/09/08 10:18:44;;;;;;;8.93;8.13;;;;;;;30.13;74.51;96836.25;5111706;28;20221;-53
2023/09/08 10:21:10;;;;;;;9.43;8.63;;;;;;;30.03;73.94;96835.38;5111581;28;20653;-53
2023/09/08 10:23:40;;;;;;;9.50;8.57;;;;;;;30.12;74.04;96831.06;5111667;28;20201;-52
2023/09/08 10:26:13;;;;;;;8.57;7.82;;;;;;;30.46;76.22;96821.50;5111992;28;20197;-54
2023/09/08 10:28:39;;;;;;;8.73;7.97;;;;;;;30.73;73.97;96821.34;5093366;28;20240;-55
2023/09/08 10:31:07;;;;;;;8.82;7.78;;;;;;;30.89;73.94;96814.06;5111745;28;20200;-56
2023/09/08 10:33:34;;;;;;;8.70;8.00;;;;;;;30.82;71.24;96817.00;5111039;28;20652;-54
2023/09/08 10:36:05;;;;;;;8.23;7.63;;;;;;;30.96;75.83;96814.63;5111855;28;20196;-55
2023/09/08 10:38:33;;;;;;;9.43;8.00;;;;;;;30.97;73.61;96811.66;5111301;28;20571;-53
2023/09/08 10:41:27;;;;;;;9.10;8.20;;;;;;;31.00;73.67;96807.53;5111780;28;20626;-55
2023/09/08 10:43:55;;;;;;;8.57;7.85;;;;;;;30.86;69.73;96803.63;5111378;28;20212;-54
2023/09/08 10:46:23;;;;;;;10.45;8.18;;;;;;;30.73;70.60;96799.50;5112649;28;20240;-53
2023/09/08 10:48:49;;;;;;;9.20;8.30;;;;;;;30.99;70.26;96805.94;5111298;28;20285;-55
2023/09/08 10:51:21;;;;;;;11.25;8.00;;;;;;;30.96;70.44;96798.25;5111797;28;20209;-53
2023/09/08 10:53:48;;;;;;;8.30;7.60;;;;;;;31.09;70.73;96792.28;5110942;28;20201;-53
2023/09/08 10:56:14;;;;;;;7.90;7.28;;;;;;;31.14;69.22;96795.06;5115215;28;20201;-54
2023/09/08 10:58:42;;;;;;;8.90;8.07;;;;;;;30.71;68.35;96795.41;5124718;28;20224;-54
2023/09/08 11:01:13;;;;;;;8.55;7.65;;;;;;;31.02;70.62;96791.72;5116549;28;20265;-53
2023/09/08 11:03:45;;;;;;;8.50;7.70;;;;;;;31.35;71.95;96790.44;5111495;28;20580;-54
2023/09/08 11:06:12;;;;;;;8.05;7.40;;;;;;;31.45;69.92;96791.28;5111082;28;20201;-55
2023/09/08 11:08:42;;;;;;;8.07;7.38;;;;;;;31.18;71.18;96785.19;5110646;28;20220;-54
2023/09/08 11:11:10;;;;;;;9.85;8.23;;;;;;;30.86;70.32;96788.06;5110540;28;20253;-55
2023/09/08 11:13:37;;;;;;;8.07;7.35;;;;;;;30.92;71.22;96781.56;5111169;28;20193;-54
2023/09/08 11:16:04;;;;;;;8.55;7.65;;;;;;;30.71;75.68;96792.69;5110835;28;20205;-53
2023/09/08 11:18:33;;;;;;;7.72;7.13;;;;;;;30.32;72.94;96793.00;5110437;28;20221;-53
2023/09/08 11:21:01;;;;;;;8.40;7.50;;;;;;;29.88;71.85;96797.91;5112441;28;20243;-53
2023/09/08 11:23:28;;;;;;;7.13;6.63;;;;;;;29.88;80.48;96786.16;5115691;28;20209;-52
2023/09/08 11:25:56;;;;;;;7.32;6.60;;;;;;;29.79;77.84;96788.53;5117028;28;20204;-53